TimeCDT,TemperatureF,Dew PointF,Humidity,Sea Level PressureIn,VisibilityMPH,Wind Direction,Wind SpeedMPH,Gust SpeedMPH,PrecipitationIn,Events,Conditions,WindDirDegrees,DateUTC
12:15 AM,68.0,62.6,83,29.74,10.0,West,3.5,-,N/A,,Overcast,280,2012-10-02 05:15:00
12:35 AM,68.0,62.6,83,29.74,10.0,WNW,3.5,-,N/A,,Overcast,290,2012-10-02 05:35:00
12:55 AM,68.0,62.6,83,29.74,10.0,WNW,3.5,-,N/A,,Overcast,290,2012-10-02 05:55:00
1:15 AM,66.2,62.6,88,29.74,10.0,West,4.6,-,N/A,,Overcast,280,2012-10-02 06:15:00
1:35 AM,66.2,62.6,88,29.74,10.0,West,3.5,-,N/A,,Overcast,270,2012-10-02 06:35:00
2:15 AM,66.2,62.6,88,29.74,10.0,West,3.5,-,N/A,,Overcast,280,2012-10-02 07:15:00
2:35 AM,66.2,62.6,88,29.75,10.0,West,4.6,-,N/A,,Overcast,260,2012-10-02 07:35:00
2:55 AM,68.0,62.6,83,29.74,10.0,West,5.8,-,N/A,,Overcast,270,2012-10-02 07:55:00
3:15 AM,66.2,62.6,88,29.75,10.0,West,3.5,-,N/A,,Overcast,270,2012-10-02 08:15:00
3:35 AM,66.2,62.6,88,29.75,10.0,West,4.6,-,N/A,,Overcast,280,2012-10-02 08:35:00
3:55 AM,66.2,62.6,88,29.75,10.0,West,4.6,-,N/A,,Overcast,270,2012-10-02 08:55:00
4:15 AM,66.2,62.6,88,29.76,10.0,West,3.5,-,N/A,,Overcast,280,2012-10-02 09:15:00
4:35 AM,66.2,62.6,88,29.77,10.0,West,5.8,-,N/A,,Overcast,280,2012-10-02 09:35:00
4:55 AM,66.2,62.6,88,29.77,10.0,WNW,4.6,-,N/A,,Overcast,290,2012-10-02 09:55:00
5:55 AM,66.2,62.6,88,29.79,10.0,West,4.6,-,N/A,,Overcast,280,2012-10-02 10:55:00
6:15 AM,66.2,62.6,88,29.79,10.0,West,4.6,-,N/A,,Overcast,270,2012-10-02 11:15:00
6:35 AM,66.2,62.6,88,29.80,10.0,West,3.5,-,N/A,,Overcast,280,2012-10-02 11:35:00
6:55 AM,66.2,62.6,88,29.81,10.0,West,5.8,-,N/A,,Overcast,280,2012-10-02 11:55:00
7:15 AM,66.2,62.6,88,29.82,10.0,West,4.6,-,N/A,,Overcast,280,2012-10-02 12:15:00
7:35 AM,66.2,62.6,88,29.83,10.0,West,5.8,-,N/A,,Overcast,280,2012-10-02 12:35:00
7:55 AM,66.2,62.6,88,29.84,10.0,West,6.9,-,N/A,,Overcast,280,2012-10-02 12:55:00
8:15 AM,68.0,62.6,83,29.85,10.0,West,6.9,-,N/A,,Overcast,270,2012-10-02 13:15:00
8:35 AM,69.8,62.6,78,29.86,10.0,West,5.8,-,N/A,,Overcast,270,2012-10-02 13:35:00
8:55 AM,68.0,62.6,83,29.86,10.0,WNW,4.6,-,N/A,,Overcast,290,2012-10-02 13:55:00
9:15 AM,68.0,62.6,83,29.87,10.0,WSW,5.8,-,N/A,,Overcast,250,2012-10-02 14:15:00
9:35 AM,69.8,62.6,78,29.88,10.0,WNW,5.8,-,N/A,,Overcast,300,2012-10-02 14:35:00
9:55 AM,69.8,62.6,78,29.88,10.0,WNW,6.9,-,N/A,,Mostly Cloudy,300,2012-10-02 14:55:00
10:15 AM,71.6,60.8,69,29.89,10.0,West,6.9,-,N/A,,Scattered Clouds,270,2012-10-02 15:15:00
10:55 AM,71.6,60.8,69,29.90,10.0,NW,8.1,-,N/A,,Scattered Clouds,310,2012-10-02 15:55:00
11:15 AM,73.4,59.0,61,29.91,10.0,West,5.8,-,N/A,,Clear,270,2012-10-02 16:15:00
11:35 AM,73.4,60.8,65,29.90,10.0,West,8.1,-,N/A,,Clear,280,2012-10-02 16:35:00
11:55 AM,73.4,59.0,61,29.90,10.0,WNW,8.1,-,N/A,,Clear,290,2012-10-02 16:55:00
12:15 PM,73.4,59.0,61,29.90,10.0,NW,8.1,-,N/A,,Clear,310,2012-10-02 17:15:00
12:35 PM,75.2,59.0,57,29.89,10.0,NW,9.2,-,N/A,,Clear,310,2012-10-02 17:35:00
12:55 PM,75.2,59.0,57,29.89,10.0,NW,8.1,-,N/A,,Clear,310,2012-10-02 17:55:00
1:15 PM,77.0,59.0,54,29.90,10.0,WNW,5.8,-,N/A,,Clear,300,2012-10-02 18:15:00
1:35 PM,77.0,59.0,54,29.89,10.0,WNW,3.5,-,N/A,,Clear,300,2012-10-02 18:35:00
1:55 PM,77.0,59.0,54,29.89,10.0,WNW,6.9,-,N/A,,Clear,290,2012-10-02 18:55:00
2:15 PM,77.0,59.0,54,29.89,10.0,West,8.1,-,N/A,,Clear,280,2012-10-02 19:15:00
2:35 PM,78.8,59.0,51,29.89,10.0,WNW,8.1,-,N/A,,Clear,300,2012-10-02 19:35:00
2:55 PM,78.8,59.0,51,29.89,10.0,West,4.6,-,N/A,,Clear,270,2012-10-02 19:55:00
3:15 PM,78.8,59.0,51,29.89,10.0,WSW,6.9,-,N/A,,Scattered Clouds,240,2012-10-02 20:15:00
3:35 PM,78.8,59.0,51,29.89,7.0,West,4.6,-,N/A,,Scattered Clouds,270,2012-10-02 20:35:00
3:55 PM,78.8,59.0,51,29.89,7.0,West,4.6,-,N/A,,Clear,260,2012-10-02 20:55:00
4:15 PM,78.8,57.2,47,29.89,10.0,West,3.5,-,N/A,,Clear,280,2012-10-02 21:15:00
4:35 PM,78.8,59.0,51,29.90,10.0,WNW,4.6,-,N/A,,Clear,290,2012-10-02 21:35:00
4:55 PM,77.0,59.0,54,29.90,7.0,NW,3.5,-,N/A,,Clear,310,2012-10-02 21:55:00
5:15 PM,77.0,57.2,50,29.90,10.0,WSW,3.5,-,N/A,,Clear,240,2012-10-02 22:15:00
5:35 PM,77.0,59.0,54,29.90,10.0,Calm,Calm,-,N/A,,Clear,0,2012-10-02 22:35:00
5:55 PM,75.2,60.8,61,29.90,10.0,Calm,Calm,-,N/A,,Clear,0,2012-10-02 22:55:00
6:15 PM,73.4,62.6,69,29.90,10.0,Calm,Calm,-,N/A,,Clear,0,2012-10-02 23:15:00
6:35 PM,71.6,62.6,73,29.91,10.0,Calm,Calm,-,N/A,,Clear,0,2012-10-02 23:35:00
6:55 PM,68.0,64.4,88,29.91,10.0,Calm,Calm,-,N/A,,Scattered Clouds,0,2012-10-02 23:55:00
7:15 PM,68.0,64.4,88,29.92,10.0,Calm,Calm,-,N/A,,Scattered Clouds,0,2012-10-03 00:15:00
7:35 PM,68.0,64.4,88,29.93,7.0,Calm,Calm,-,N/A,,Clear,0,2012-10-03 00:35:00
7:55 PM,66.2,64.4,94,29.94,7.0,Calm,Calm,-,N/A,,Scattered Clouds,0,2012-10-03 00:55:00
8:15 PM,64.4,64.4,100,29.95,7.0,Calm,Calm,-,N/A,,Clear,0,2012-10-03 01:15:00
8:35 PM,64.4,64.4,100,29.95,5.0,Calm,Calm,-,N/A,,Clear,0,2012-10-03 01:35:00
8:55 PM,64.4,62.6,94,29.96,5.0,Calm,Calm,-,N/A,,Clear,0,2012-10-03 01:55:00
9:15 PM,64.4,62.6,94,29.97,7.0,Calm,Calm,-,N/A,,Clear,0,2012-10-03 02:15:00
9:35 PM,64.4,62.6,94,29.98,5.0,Calm,Calm,-,N/A,,Clear,0,2012-10-03 02:35:00
9:55 PM,62.6,62.6,100,29.99,5.0,Calm,Calm,-,N/A,,Clear,0,2012-10-03 02:55:00
10:15 PM,62.6,62.6,100,30.00,5.0,Calm,Calm,-,N/A,,Clear,0,2012-10-03 03:15:00
10:35 PM,64.4,62.6,94,30.00,7.0,Calm,Calm,-,N/A,,Clear,0,2012-10-03 03:35:00
10:55 PM,62.6,62.6,100,30.01,4.0,Calm,Calm,-,N/A,,Clear,0,2012-10-03 03:55:00
11:15 PM,64.4,62.6,94,30.01,7.0,NE,3.5,-,N/A,,Clear,50,2012-10-03 04:15:00
11:35 PM,64.4,62.6,94,30.01,10.0,NE,3.5,-,N/A,,Clear,50,2012-10-03 04:35:00
11:55 PM,64.4,60.8,88,30.02,10.0,ENE,3.5,-,N/A,,Clear,70,2012-10-03 04:55:00